Time;durP1;ratioP1;P1;durP2;ratioP2;P2;SDS_P1;SDS_P2;PMS_P1;PMS_P2;Temp;Humidity;BMP_temperature;BMP_pressure;BME280_temperature;BME280_humidity;BME280_pressure;Samples;Min_cycle;Max_cycle;Signal;HPM_P1;HPM_P2
2023/07/14 05:10:10;;;;;;;;;;;;;;;4.51;100.00;99760.22;5470694;23;19930;-86
2023/07/14 05:12:36;;;;;;;;;;;;;;;4.60;100.00;99753.09;5010885;28;20371;-86
2023/07/14 05:15:02;;;;;;;;;;;;;;;4.57;100.00;99754.00;4995209;28;19921;-87
2023/07/14 05:17:27;;;;;;;;;;;;;;;4.55;100.00;99759.28;4995691;28;19921;-90
2023/07/14 05:19:53;;;;;;;;;;;;;;;4.52;100.00;99754.09;5013137;28;19917;-84
2023/07/14 05:22:18;;;;;;;;;;;;;;;4.53;100.00;99754.94;4995130;28;19928;-85
2023/07/14 05:24:43;;;;;;;;;;;;;;;4.51;100.00;99752.34;5011257;28;19924;-84
2023/07/14 05:27:08;;;;;;;;;;;;;;;4.57;100.00;99755.78;4990651;28;19967;-84
2023/07/14 05:29:34;;;;;;;;;;;;;;;4.67;100.00;99752.06;4995035;28;19944;-86
2023/07/14 05:31:59;;;;;;;;;;;;;;;4.60;100.00;99746.06;4994868;28;20011;-91
2023/07/14 05:34:24;;;;;;;;;;;;;;;4.62;100.00;99754.78;5011050;28;19921;-85
2023/07/14 05:36:49;;;;;;;;;;;;;;;4.67;100.00;99747.66;4994870;28;19917;-85
2023/07/14 05:39:15;;;;;;;;;;;;;;;4.70;100.00;99749.38;4993239;28;19917;-86
2023/07/14 05:41:40;;;;;;;;;;;;;;;4.69;100.00;99750.25;5012562;28;19917;-86
2023/07/14 05:44:05;;;;;;;;;;;;;;;4.72;100.00;99747.56;5012409;28;19967;-86
2023/07/14 05:46:30;;;;;;;;;;;;;;;4.78;100.00;99751.84;4994793;28;19957;-86
2023/07/14 05:48:56;;;;;;;;;;;;;;;4.67;100.00;99752.91;4994829;28;19921;-85
2023/07/14 05:51:21;;;;;;;;;;;;;;;4.68;100.00;99749.41;4990145;28;19917;-85
2023/07/14 05:53:46;;;;;;;;;;;;;;;4.73;100.00;99751.94;4993265;28;19918;-85
2023/07/14 05:56:12;;;;;;;;;;;;;;;4.65;100.00;99749.47;5012237;28;19921;-85
2023/07/14 05:58:37;;;;;;;;;;;;;;;4.78;100.00;99755.34;5007732;28;20368;-86
2023/07/14 06:01:02;;;;;;;;;;;;;;;4.76;100.00;99759.75;4990122;28;19987;-86
2023/07/14 06:03:28;;;;;;;;;;;;;;;4.74;100.00;99756.31;4990156;28;19914;-86
2023/07/14 06:05:56;;;;;;;;;;;;;;;4.78;100.00;99755.34;5010639;28;20003;-85
2023/07/14 06:08:21;;;;;;;;;;;;;;;4.76;100.00;99751.03;4994827;28;20284;-85
2023/07/14 06:10:46;;;;;;;;;;;;;;;4.87;100.00;99744.66;4993046;28;19921;-85
2023/07/14 06:13:11;;;;;;;;;;;;;;;4.85;100.00;99748.19;4994470;28;20732;-85
2023/07/14 06:15:37;;;;;;;;;;;;;;;4.84;100.00;99736.84;4990086;28;19917;-85
2023/07/14 06:18:02;;;;;;;;;;;;;;;4.81;100.00;99736.91;5011953;28;19924;-85
2023/07/14 06:20:27;;;;;;;;;;;;;;;4.84;100.00;99736.84;4994488;28;19924;-82
2023/07/14 06:22:53;;;;;;;;;;;;;;;4.93;100.00;99727.03;5011963;28;19917;-85
2023/07/14 06:25:18;;;;;;;;;;;;;;;4.96;100.00;99733.09;5010633;28;20076;-86
2023/07/14 06:27:43;;;;;;;;;;;;;;;4.91;100.00;99730.59;5012086;28;19921;-85
2023/07/14 06:30:09;;;;;;;;;;;;;;;4.98;100.00;99720.81;5011823;28;19913;-85
2023/07/14 06:32:34;;;;;;;;;;;;;;;5.04;100.00;99717.19;5011837;28;19922;-85
2023/07/14 06:34:59;;;;;;;;;;;;;;;5.04;100.00;99715.44;4994209;28;19917;-85
2023/07/14 06:37:25;;;;;;;;;;;;;;;4.98;100.00;99715.56;5011735;28;20273;-85
2023/07/14 06:39:51;;;;;;;;;;;;;;;4.97;100.00;99710.34;5010606;28;20004;-85
2023/07/14 06:42:16;;;;;;;;;;;;;;;5.11;100.00;99710.91;5011693;28;19964;-85
2023/07/14 06:44:42;;;;;;;;;;;;;;;5.03;100.00;99708.44;5011120;28;20049;-85
2023/07/14 06:47:07;;;;;;;;;;;;;;;5.00;100.00;99707.66;4996293;28;19928;-87
2023/07/14 06:49:32;;;;;;;;;;;;;;;5.00;100.00;99705.03;5015676;28;19913;-83
2023/07/14 06:51:58;;;;;;;;;;;;;;;4.96;100.00;99691.06;5015383;28;20479;-85
2023/07/14 06:54:23;;;;;;;;;;;;;;;4.97;100.00;99697.22;5014227;28;19925;-85
2023/07/14 07:40:29;;;;;;;;;;;;;;;4.66;100.00;99661.97;5524830;23;20559;-88
2023/07/14 07:42:54;;;;;;;;;;;;;;;4.66;100.00;99671.56;4994875;28;19922;-85
2023/07/14 07:45:19;;;;;;;;;;;;;;;4.67;100.00;99662.81;4994637;28;20349;-83
2023/07/14 07:47:45;;;;;;;;;;;;;;;4.69;100.00;99655.78;4994736;28;19925;-84
2023/07/14 07:50:11;;;;;;;;;;;;;;;4.68;100.00;99656.69;4994730;28;19917;-84
2023/07/14 07:52:36;;;;;;;;;;;;;;;4.73;100.00;99658.31;4994298;28;20021;-84
2023/07/14 07:55:01;;;;;;;;;;;;;;;4.84;100.00;99647.56;4975530;28;19922;-84
2023/07/14 07:57:26;;;;;;;;;;;;;;;4.90;100.00;99652.69;4993648;28;20383;-84
2023/07/14 07:59:52;;;;;;;;;;;;;;;5.04;100.00;99647.16;4994013;28;20353;-84
2023/07/14 08:02:17;;;;;;;;;;;;;;;5.04;100.00;99646.25;4994448;28;19914;-84
2023/07/14 08:04:42;;;;;;;;;;;;;;;5.05;100.00;99648.84;4994221;28;19929;-84
2023/07/14 08:07:11;;;;;;;;;;;;;;;5.02;100.00;99648.06;4993579;28;20380;-86
2023/07/14 08:09:36;;;;;;;;;;;;;;;5.12;100.00;99649.59;4993192;28;20044;-83
2023/07/14 08:12:02;;;;;;;;;;;;;;;5.08;100.00;99642.69;4994353;28;20000;-87
2023/07/14 08:14:28;;;;;;;;;;;;;;;5.08;100.00;99637.44;4976468;28;20273;-91
2023/07/14 08:16:53;;;;;;;;;;;;;;;5.11;100.00;99640.00;4994147;28;19937;-86
2023/07/14 08:19:18;;;;;;;;;;;;;;;5.13;100.00;99640.81;4993985;28;19925;-85
2023/07/14 08:21:43;;;;;;;;;;;;;;;5.12;100.00;99639.06;4976467;28;19928;-88
2023/07/14 08:24:10;;;;;;;;;;;;;;;5.17;100.00;99647.75;4974501;28;19998;-85
2023/07/14 08:26:36;;;;;;;;;;;;;;;5.20;100.00;99644.16;4993707;28;19925;-85
2023/07/14 08:29:02;;;;;;;;;;;;;;;5.16;100.00;99640.75;4976644;28;19922;-85
2023/07/14 08:31:30;;;;;;;;;;;;;;;5.14;100.00;99639.94;4993583;28;20388;-88
2023/07/14 08:33:56;;;;;;;;;;;;;;;5.23;100.00;99642.34;4976148;28;20016;-85
2023/07/14 08:36:22;;;;;;;;;;;;;;;5.16;100.00;99638.13;4976091;28;20064;-85
2023/07/14 08:38:47;;;;;;;;;;;;;;;5.15;100.00;99635.53;4993772;28;19973;-85
2023/07/14 08:41:18;;;;;;;;;;;;;;;5.30;100.00;99636.91;4974673;28;20384;-85
2023/07/14 08:43:58;;;;;;;;;;;;;;;5.17;100.00;99631.97;4976046;28;20293;-85
2023/07/14 08:46:29;;;;;;;;;;;;;;;5.15;100.00;99633.75;4988423;28;19984;-92
2023/07/14 08:49:11;;;;;;;;;;;;;;;5.26;100.00;99636.13;4991941;28;19924;-84
2023/07/14 08:51:38;;;;;;;;;;;;;;;5.34;100.00;99634.19;4993658;28;19929;-85
2023/07/14 08:54:08;;;;;;;;;;;;;;;5.26;100.00;99625.63;4974793;28;19925;-85
2023/07/14 08:56:34;;;;;;;;;;;;;;;5.25;100.00;99624.78;4993306;28;19922;-85
2023/07/14 08:59:00;;;;;;;;;;;;;;;5.40;100.00;99614.78;4992057;28;19918;-85
2023/07/14 09:01:40;;;;;;;;;;;;;;;5.40;100.00;99618.28;4975433;28;19918;-83
2023/07/14 09:04:11;;;;;;;;;;;;;;;5.34;100.00;99612.31;4975678;28;20017;-85
2023/07/14 09:06:38;;;;;;;;;;;;;;;5.41;100.00;99613.91;4991229;28;19918;-84
2023/07/14 09:09:12;;;;;;;;;;;;;;;5.43;100.00;99612.09;4973122;28;20008;-85
2023/07/14 09:11:52;;;;;;;;;;;;;;;5.36;100.00;99613.13;4992683;28;19964;-85
2023/07/14 09:14:23;;;;;;;;;;;;;;;5.37;100.00;99613.09;4991466;28;19976;-85
2023/07/14 09:16:55;;;;;;;;;;;;;;;5.38;100.00;99608.72;4991293;28;19921;-85
2023/07/14 09:19:33;;;;;;;;;;;;;;;5.25;100.00;99609.00;4975524;28;19977;-85
2023/07/14 09:22:07;;;;;;;;;;;;;;;5.30;100.00;99608.03;4975205;28;19929;-85
2023/07/14 09:24:40;;;;;;;;;;;;;;;5.30;100.00;99602.75;4991757;28;19918;-85
2023/07/14 09:27:08;;;;;;;;;;;;;;;5.38;100.00;99598.22;4992242;28;19977;-85
2023/07/14 09:29:36;;;;;;;;;;;;;;;5.40;100.00;99591.16;4990747;28;20388;-85
2023/07/14 09:32:04;;;;;;;;;;;;;;;5.39;100.00;99594.66;4991649;28;20288;-85
2023/07/14 09:34:49;;;;;;;;;;;;;;;5.33;100.00;99590.44;4972116;28;19928;-85
2023/07/14 09:37:20;;;;;;;;;;;;;;;5.40;100.00;99597.25;4971659;28;19945;-85
2023/07/14 09:39:46;;;;;;;;;;;;;;;5.37;100.00;99592.06;4990565;28;19965;-85
2023/07/14 09:42:27;;;;;;;;;;;;;;;5.33;100.00;99582.56;4984278;28;19928;-87
2023/07/14 09:44:58;;;;;;;;;;;;;;;5.40;100.00;99576.22;4992360;28;20392;-85
2023/07/14 09:47:24;;;;;;;;;;;;;;;5.41;100.00;99562.19;4992280;28;19918;-85
2023/07/14 09:49:51;;;;;;;;;;;;;;;5.35;100.00;99548.38;4973905;28;20337;-85
2023/07/14 09:52:23;;;;;;;;;;;;;;;5.40;100.00;99526.31;4990485;28;20376;-85
2023/07/14 09:54:53;;;;;;;;;;;;;;;5.37;100.00;99529.00;4985243;28;19937;-86
2023/07/14 09:57:20;;;;;;;;;;;;;;;5.43;100.00;99544.63;4973250;28;19922;-84
2023/07/14 09:59:49;;;;;;;;;;;;;;;5.36;100.00;99529.94;4991067;28;19941;-85
2023/07/14 10:02:15;;;;;;;;;;;;;;;5.49;100.00;99521.72;4969440;28;20288;-85
2023/07/14 10:04:46;;;;;;;;;;;;;;;5.45;100.00;99531.44;4968354;28;19933;-85
2023/07/14 10:07:41;;;;;;;;;;;;;;;5.52;100.00;99545.28;4986515;28;20337;-86
2023/07/14 10:10:08;;;;;;;;;;;;;;;5.51;100.00;99546.22;4957906;28;19922;-86
2023/07/14 10:12:40;;;;;;;;;;;;;;;5.41;100.00;99538.56;4991864;28;20420;-88
2023/07/14 10:15:24;;;;;;;;;;;;;;;5.49;100.00;99541.00;4973509;28;19918;-85
2023/07/14 10:17:56;;;;;;;;;;;;;;;5.34;100.00;99523.84;4990805;28;19922;-89
2023/07/14 10:20:22;;;;;;;;;;;;;;;5.43;100.00;99522.75;4974310;28;19932;-85
2023/07/14 10:22:52;;;;;;;;;;;;;;;5.55;100.00;99535.56;4977363;28;20383;-88
2023/07/14 10:25:18;;;;;;;;;;;;;;;5.51;100.00;99533.91;4977244;28;19922;-93
2023/07/14 10:27:52;;;;;;;;;;;;;;;5.57;100.00;99533.75;4997205;28;19985;-86
2023/07/14 10:30:35;;;;;;;;;;;;;;;5.51;100.00;99525.19;4977490;28;20293;-86
2023/07/14 10:33:00;;;;;;;;;;;;;;;5.54;100.00;99531.22;4995822;28;20025;-85
2023/07/14 10:35:28;;;;;;;;;;;;;;;5.56;100.00;99524.13;4995755;28;20424;-88
2023/07/14 10:37:54;;;;;;;;;;;;;;;5.54;100.00;99515.44;4977723;28;19922;-84
2023/07/14 10:40:22;;;;;;;;;;;;;;;5.52;100.00;99522.50;4975481;28;19918;-85
2023/07/14 10:42:53;;;;;;;;;;;;;;;5.54;100.00;99511.97;4978173;28;19918;-85
2023/07/14 10:45:19;;;;;;;;;;;;;;;5.52;100.00;99512.00;4995722;28;19925;-85
2023/07/14 10:47:56;;;;;;;;;;;;;;;5.60;100.00;99504.78;4994432;28;20301;-86
2023/07/14 10:50:33;;;;;;;;;;;;;;;5.67;100.00;99509.88;4977289;28;19929;-84
2023/07/14 10:53:06;;;;;;;;;;;;;;;5.57;100.00;99510.09;4977804;28;19929;-86
2023/07/14 10:55:32;;;;;;;;;;;;;;;5.57;100.00;99507.47;4992347;28;19969;-85
2023/07/14 10:58:13;;;;;;;;;;;;;;;5.52;100.00;99506.75;4977660;28;19965;-84
2023/07/14 11:00:51;;;;;;;;;;;;;;;5.62;100.00;99508.22;4978142;28;20396;-84
2023/07/14 11:03:28;;;;;;;;;;;;;;;5.55;100.00;99501.41;4977772;28;20341;-91
2023/07/14 11:05:55;;;;;;;;;;;;;;;5.57;100.00;99494.34;4988784;28;19922;-85
2023/07/14 11:08:22;;;;;;;;;;;;;;;5.57;100.00;99489.06;4973560;28;19926;-85
2023/07/14 11:10:50;;;;;;;;;;;;;;;5.68;100.00;99485.28;4993891;28;19976;-85
2023/07/14 11:13:15;;;;;;;;;;;;;;;5.72;100.00;99479.91;4977630;28;19925;-85
2023/07/14 11:15:44;;;;;;;;;;;;;;;5.76;100.00;99473.66;4994032;28;19918;-87
2023/07/14 11:18:36;;;;;;;;;;;;;;;5.75;100.00;99486.84;4970716;28;19921;-85
2023/07/14 11:21:25;;;;;;;;;;;;;;;5.70;100.00;99481.72;4969810;28;19933;-86
2023/07/14 11:23:56;;;;;;;;;;;;;;;5.72;100.00;99472.00;4977140;28;20331;-85
2023/07/14 11:26:24;;;;;;;;;;;;;;;5.69;100.00;99451.06;4976923;28;19918;-88
2023/07/14 11:29:04;;;;;;;;;;;;;;;5.69;100.00;99423.94;4993852;28;19922;-86
2023/07/14 11:31:32;;;;;;;;;;;;;;;5.58;100.00;99375.13;4994039;28;19939;-85
2023/07/14 11:34:06;;;;;;;;;;;;;;;5.65;100.00;99365.34;4994197;28;19953;-85
2023/07/14 11:36:39;;;;;;;;;;;;;;;5.63;100.00;99394.28;4976993;28;19965;-84
2023/07/14 11:39:16;;;;;;;;;;;;;;;5.60;100.00;99418.03;4975162;28;19926;-84
2023/07/14 11:41:43;;;;;;;;;;;;;;;5.65;100.00;99436.31;4975785;28;20000;-84
2023/07/14 11:44:11;;;;;;;;;;;;;;;5.58;100.00;99440.84;4976330;28;19925;-85
2023/07/14 11:46:37;;;;;;;;;;;;;;;5.67;100.00;99444.16;4976680;28;19925;-84
2023/07/14 11:49:04;;;;;;;;;;;;;;;5.67;100.00;99433.63;4975933;28;19922;-85
2023/07/14 11:51:51;;;;;;;;;;;;;;;5.62;100.00;99439.88;4970250;28;19996;-85
2023/07/14 11:54:24;;;;;;;;;;;;;;;5.67;100.00;99429.22;4991579;28;19926;-84
2023/07/14 11:57:00;;;;;;;;;;;;;;;5.71;100.00;99416.84;4976814;28;20008;-84
2023/07/14 11:59:27;;;;;;;;;;;;;;;5.67;100.00;99399.47;4991994;28;19922;-87
2023/07/14 12:01:54;;;;;;;;;;;;;;;5.69;100.00;99392.38;4994442;28;20009;-85
2023/07/14 12:04:33;;;;;;;;;;;;;;;5.71;100.00;99390.56;4976952;28;19918;-85
2023/07/14 12:07:16;;;;;;;;;;;;;;;5.74;100.00;99412.34;4976646;28;19922;-87
2023/07/14 12:09:58;;;;;;;;;;;;;;;5.68;100.00;99403.78;4975418;28;19918;-86
2023/07/14 12:12:23;;;;;;;;;;;;;;;5.68;100.00;99381.00;4976653;28;19918;-85
2023/07/14 12:14:50;;;;;;;;;;;;;;;5.72;100.00;99382.63;4994227;28;19929;-85
2023/07/14 12:17:34;;;;;;;;;;;;;;;5.81;100.00;99390.25;4976535;28;19918;-85
2023/07/14 12:20:03;;;;;;;;;;;;;;;5.80;100.00;99395.56;4976451;28;19922;-85
2023/07/14 12:22:44;;;;;;;;;;;;;;;5.91;100.00;99385.56;4994134;28;19929;-85
2023/07/14 12:25:13;;;;;;;;;;;;;;;5.87;100.00;99385.72;4991058;28;20433;-85
2023/07/14 12:27:41;;;;;;;;;;;;;;;5.89;100.00;99384.75;4976499;28;20540;-85
2023/07/14 12:30:15;;;;;;;;;;;;;;;5.81;100.00;99386.78;4993955;28;19929;-85
2023/07/14 12:32:41;;;;;;;;;;;;;;;5.93;100.00;99367.97;4975976;28;20020;-85
2023/07/14 12:35:14;;;;;;;;;;;;;;;5.95;100.00;99368.81;4993822;28;20012;-84
2023/07/14 12:37:39;;;;;;;;;;;;;;;5.88;100.00;99366.41;4993109;28;20425;-85
2023/07/14 12:40:06;;;;;;;;;;;;;;;5.94;100.00;99359.19;4992286;28;20021;-85
2023/07/14 12:42:33;;;;;;;;;;;;;;;5.98;100.00;99350.34;4992724;28;19991;-84
2023/07/14 12:44:59;;;;;;;;;;;;;;;5.97;100.00;99345.97;4991663;28;19941;-83
2023/07/14 12:47:24;;;;;;;;;;;;;;;5.95;100.00;99341.63;4976000;28;20020;-84
2023/07/14 12:49:51;;;;;;;;;;;;;;;5.88;100.00;99345.38;4993614;28;19948;-84
2023/07/14 12:52:20;;;;;;;;;;;;;;;5.95;100.00;99337.25;4976017;28;20408;-85
2023/07/14 12:54:46;;;;;;;;;;;;;;;5.97;100.00;99334.59;4992024;28;19940;-84
2023/07/14 12:57:13;;;;;;;;;;;;;;;5.99;100.00;99324.88;4975843;28;20020;-84
2023/07/14 12:59:39;;;;;;;;;;;;;;;6.01;100.00;99323.06;4993344;28;19918;-85
2023/07/14 13:02:10;;;;;;;;;;;;;;;6.03;100.00;99328.28;4993230;28;19922;-85
2023/07/14 13:04:35;;;;;;;;;;;;;;;5.89;100.00;99313.75;4993181;28;20012;-85
2023/07/14 13:07:05;;;;;;;;;;;;;;;5.92;100.00;99323.31;4993252;28;20017;-85
2023/07/14 13:09:31;;;;;;;;;;;;;;;5.93;100.00;99318.00;4991088;28;20010;-85
2023/07/14 13:11:56;;;;;;;;;;;;;;;5.95;100.00;99305.69;4993060;28;19980;-85
2023/07/14 13:14:47;;;;;;;;;;;;;;;6.06;100.00;99291.34;4975543;28;19984;-85
2023/07/14 13:17:19;;;;;;;;;;;;;;;5.96;100.00;99291.66;4992570;28;20000;-85
2023/07/14 13:19:46;;;;;;;;;;;;;;;5.94;100.00;99292.59;4993071;28;19928;-85
2023/07/14 13:22:20;;;;;;;;;;;;;;;5.96;100.00;99280.25;4970004;28;20280;-84
2023/07/14 13:24:54;;;;;;;;;;;;;;;5.93;100.00;99269.81;4991531;28;19922;-84
2023/07/14 13:27:20;;;;;;;;;;;;;;;6.10;100.00;99277.22;4985680;28;19921;-87
2023/07/14 13:29:55;;;;;;;;;;;;;;;6.05;100.00;99261.56;4992919;28;19918;-84
2023/07/14 13:32:24;;;;;;;;;;;;;;;6.00;100.00;99266.97;4991340;28;19914;-85
2023/07/14 13:34:50;;;;;;;;;;;;;;;5.99;100.00;99260.00;4975090;28;19965;-84
2023/07/14 13:37:16;;;;;;;;;;;;;;;6.03;100.00;99252.00;4992694;28;19929;-85
2023/07/14 13:39:43;;;;;;;;;;;;;;;5.99;100.00;99253.88;4973918;28;19918;-85
2023/07/14 13:42:29;;;;;;;;;;;;;;;5.99;100.00;99252.09;4992316;28;19965;-85
2023/07/14 13:44:56;;;;;;;;;;;;;;;6.12;100.00;99230.66;4992076;28;19921;-85
2023/07/14 13:47:23;;;;;;;;;;;;;;;6.18;100.00;99238.34;4991412;28;19918;-84
2023/07/14 13:49:49;;;;;;;;;;;;;;;6.14;100.00;99236.72;4975115;28;19973;-85
2023/07/14 13:52:17;;;;;;;;;;;;;;;6.16;100.00;99235.78;4975006;28;19928;-84
2023/07/14 13:54:44;;;;;;;;;;;;;;;6.21;100.00;99233.00;4989619;28;19925;-85
2023/07/14 13:57:10;;;;;;;;;;;;;;;6.14;100.00;99236.72;4974793;28;20285;-84
2023/07/14 13:59:35;;;;;;;;;;;;;;;6.17;100.00;99228.72;4986423;28;19921;-85
2023/07/14 14:02:07;;;;;;;;;;;;;;;6.21;100.00;99227.72;4974579;28;19928;-85
2023/07/14 14:04:32;;;;;;;;;;;;;;;6.23;100.00;99220.63;4974910;28;19917;-85
2023/07/14 14:06:57;;;;;;;;;;;;;;;6.13;100.00;99220.09;4974954;28;20296;-85
2023/07/14 14:09:23;;;;;;;;;;;;;;;6.09;100.00;99223.72;4973290;28;19987;-85
2023/07/14 14:11:51;;;;;;;;;;;;;;;6.12;100.00;99222.78;4974786;28;20373;-84
2023/07/14 14:14:17;;;;;;;;;;;;;;;6.11;100.00;99216.66;4991326;28;20262;-84
2023/07/14 14:16:46;;;;;;;;;;;;;;;6.17;100.00;99219.09;4992716;28;19925;-88
2023/07/14 14:19:14;;;;;;;;;;;;;;;6.15;100.00;99213.00;4967133;28;19914;-85
2023/07/14 14:21:39;;;;;;;;;;;;;;;6.13;100.00;99211.34;4992270;28;20396;-85
2023/07/14 14:24:05;;;;;;;;;;;;;;;6.13;100.00;99198.19;4974384;28;19925;-85
2023/07/14 14:26:30;;;;;;;;;;;;;;;6.13;100.00;99198.19;4990266;28;19929;-86
2023/07/14 14:28:55;;;;;;;;;;;;;;;6.15;100.00;99201.63;4992183;28;19957;-84
2023/07/14 14:31:21;;;;;;;;;;;;;;;6.07;100.00;99190.50;4992042;28;19924;-84
2023/07/14 14:33:46;;;;;;;;;;;;;;;6.10;100.00;99198.28;4992257;28;19964;-85
2023/07/14 14:36:11;;;;;;;;;;;;;;;6.10;100.00;99182.50;4992145;28;19922;-85
2023/07/14 14:38:38;;;;;;;;;;;;;;;6.24;100.00;99185.53;4992485;28;20337;-84
2023/07/14 14:41:05;;;;;;;;;;;;;;;6.13;100.00;99185.03;4990552;28;19945;-85
2023/07/14 14:43:31;;;;;;;;;;;;;;;6.24;100.00;99171.50;4991734;28;19972;-84
2023/07/14 14:45:57;;;;;;;;;;;;;;;6.18;100.00;99157.66;4964659;28;19918;-89
2023/07/14 14:48:26;;;;;;;;;;;;;;;6.17;100.00;99144.53;4964811;28;19961;-85
2023/07/14 14:50:52;;;;;;;;;;;;;;;6.18;100.00;99141.00;4963729;28;19922;-84
2023/07/14 14:53:19;;;;;;;;;;;;;;;6.18;100.00;99135.75;4963636;28;19926;-85
2023/07/14 14:55:46;;;;;;;;;;;;;;;6.14;100.00;99136.75;4981040;28;19918;-85
2023/07/14 14:58:19;;;;;;;;;;;;;;;6.11;100.00;99134.22;4982402;28;19945;-85
2023/07/14 15:01:05;;;;;;;;;;;;;;;6.07;100.00;99130.88;4982363;28;19917;-85
2023/07/14 15:03:30;;;;;;;;;;;;;;;6.11;100.00;99115.81;4982631;28;20009;-85
2023/07/14 15:05:55;;;;;;;;;;;;;;;6.17;100.00;99105.09;4982257;28;20074;-85
2023/07/14 15:08:21;;;;;;;;;;;;;;;6.11;100.00;99110.56;4984432;28;19922;-85
2023/07/14 15:10:47;;;;;;;;;;;;;;;6.05;100.00;99095.00;4984467;28;19918;-85
2023/07/14 15:13:17;;;;;;;;;;;;;;;6.13;100.00;99088.56;4985906;28;20281;-85
2023/07/14 15:15:44;;;;;;;;;;;;;;;6.13;100.00;99085.09;4985213;28;19926;-85
2023/07/14 15:18:11;;;;;;;;;;;;;;;6.23;100.00;99089.09;4970447;28;20325;-83
2023/07/14 15:20:36;;;;;;;;;;;;;;;6.19;100.00;99082.25;4985592;28;19925;-85
2023/07/14 15:23:02;;;;;;;;;;;;;;;6.15;100.00;99073.56;4985379;28;20369;-85
2023/07/14 15:25:29;;;;;;;;;;;;;;;6.16;100.00;99082.34;4984263;28;19918;-84
2023/07/14 15:27:55;;;;;;;;;;;;;;;6.18;100.00;99062.09;4972181;28;20333;-85
2023/07/14 15:30:27;;;;;;;;;;;;;;;6.16;100.00;99064.78;4993824;28;19922;-87
2023/07/14 15:32:55;;;;;;;;;;;;;;;6.08;100.00;99052.81;4992743;28;19922;-85
2023/07/14 15:35:22;;;;;;;;;;;;;;;6.15;100.00;99049.91;4994978;28;19922;-85
2023/07/14 15:37:47;;;;;;;;;;;;;;;6.09;100.00;99049.28;4975560;28;19922;-84
2023/07/14 15:40:13;;;;;;;;;;;;;;;6.13;100.00;99051.75;4993070;28;19964;-85
2023/07/14 15:42:39;;;;;;;;;;;;;;;6.21;100.00;99053.22;4994340;28;20012;-84
2023/07/14 15:45:05;;;;;;;;;;;;;;;6.21;100.00;99048.84;4994568;28;20055;-84
2023/07/14 15:47:30;;;;;;;;;;;;;;;6.28;100.00;99042.41;4976344;28;20305;-87
2023/07/14 15:49:55;;;;;;;;;;;;;;;6.23;100.00;99039.09;4994302;28;19959;-85
2023/07/14 15:52:21;;;;;;;;;;;;;;;6.28;100.00;99034.53;4974641;28;20366;-86
2023/07/14 15:54:46;;;;;;;;;;;;;;;6.28;100.00;99041.56;4973453;28;20329;-85
2023/07/14 15:57:13;;;;;;;;;;;;;;;6.17;100.00;99027.06;4974764;28;19917;-83
2023/07/14 15:59:38;;;;;;;;;;;;;;;6.17;100.00;99027.06;4974920;28;20005;-89
2023/07/14 16:02:04;;;;;;;;;;;;;;;6.19;100.00;99021.72;4989655;28;20281;-84
2023/07/14 16:04:29;;;;;;;;;;;;;;;6.21;100.00;99012.00;4992683;28;19968;-85
2023/07/14 16:06:55;;;;;;;;;;;;;;;6.24;100.00;99006.63;4975447;28;20009;-86
2023/07/14 16:09:26;;;;;;;;;;;;;;;6.22;100.00;98999.69;4974044;28;19929;-84
2023/07/14 16:11:51;;;;;;;;;;;;;;;6.10;100.00;98998.38;4967028;28;19965;-88
2023/07/14 16:14:17;;;;;;;;;;;;;;;6.20;100.00;98994.50;4960863;28;20348;-85
2023/07/14 16:16:42;;;;;;;;;;;;;;;6.16;100.00;98998.16;4965665;28;19918;-86
2023/07/14 16:19:07;;;;;;;;;;;;;;;6.27;100.00;98990.72;4962505;28;19937;-83
2023/07/14 16:21:37;;;;;;;;;;;;;;;6.19;100.00;98990.16;4966854;28;19929;-85
2023/07/14 16:24:02;;;;;;;;;;;;;;;6.23;100.00;98983.84;4966605;28;20009;-84
2023/07/14 16:26:27;;;;;;;;;;;;;;;6.22;100.00;98982.13;4965039;28;20061;-85
2023/07/14 16:28:53;;;;;;;;;;;;;;;6.25;100.00;98970.66;4969492;28;19918;-84
2023/07/14 16:31:19;;;;;;;;;;;;;;;6.26;100.00;98975.84;4988868;28;19925;-84
2023/07/14 16:33:44;;;;;;;;;;;;;;;6.33;100.00;98976.47;4993613;28;19917;-84
2023/07/14 16:36:20;;;;;;;;;;;;;;;6.29;100.00;98973.09;4975327;28;19929;-84
2023/07/14 16:38:45;;;;;;;;;;;;;;;6.29;100.00;98965.22;4992736;28;19917;-84
2023/07/14 16:41:12;;;;;;;;;;;;;;;6.25;100.00;98968.84;4968287;28;19933;-84
2023/07/14 16:43:37;;;;;;;;;;;;;;;6.27;100.00;98966.16;4964383;28;20003;-84
2023/07/14 16:46:03;;;;;;;;;;;;;;;6.24;100.00;98966.28;4974218;28;20010;-83
2023/07/14 16:48:29;;;;;;;;;;;;;;;6.26;100.00;98964.47;4964228;28;20409;-87
2023/07/14 16:50:54;;;;;;;;;;;;;;;6.26;100.00;98956.59;4973974;28;19918;-84
2023/07/14 16:53:20;;;;;;;;;;;;;;;6.28;100.00;98963.47;4973991;28;19918;-84
2023/07/14 16:55:46;;;;;;;;;;;;;;;6.28;100.00;98971.38;4972733;28;19985;-84
2023/07/14 16:58:22;;;;;;;;;;;;;;;6.23;100.00;98960.19;4964326;28;19929;-84
2023/07/14 17:00:50;;;;;;;;;;;;;;;6.23;100.00;98960.19;4974185;28;19958;-84
2023/07/14 17:03:22;;;;;;;;;;;;;;;6.30;100.00;98964.31;4964113;28;19914;-84
2023/07/14 17:05:48;;;;;;;;;;;;;;;6.24;100.00;98959.28;4973242;28;20377;-84
2023/07/14 17:08:18;;;;;;;;;;;;;;;6.31;100.00;98960.72;4973205;28;20009;-84
2023/07/14 17:10:43;;;;;;;;;;;;;;;6.31;100.00;98957.25;4962862;28;19957;-84
2023/07/14 17:13:13;;;;;;;;;;;;;;;6.47;100.00;98960.16;4964127;28;19961;-84
2023/07/14 17:15:38;;;;;;;;;;;;;;;6.35;100.00;98956.19;4971792;28;20012;-85
2023/07/14 17:18:08;;;;;;;;;;;;;;;6.35;100.00;98951.81;4964176;28;20012;-84
2023/07/14 17:20:34;;;;;;;;;;;;;;;6.41;100.00;98949.84;4963582;28;19922;-84
2023/07/14 17:22:59;;;;;;;;;;;;;;;6.38;100.00;98953.44;4973727;28;19918;-84
2023/07/14 17:25:24;;;;;;;;;;;;;;;6.44;100.00;98947.97;4970735;28;20004;-85
2023/07/14 17:27:51;;;;;;;;;;;;;;;6.41;100.00;98941.97;4962036;28;20047;-85
2023/07/14 17:30:20;;;;;;;;;;;;;;;6.50;100.00;98944.25;4972051;28;19925;-84
2023/07/14 17:32:46;;;;;;;;;;;;;;;6.39;100.00;98942.03;4972516;28;19922;-85
2023/07/14 17:35:12;;;;;;;;;;;;;;;6.39;100.00;98943.81;4957019;28;19930;-84
2023/07/14 17:37:38;;;;;;;;;;;;;;;6.35;100.00;98946.56;4959560;28;19925;-85
2023/07/14 17:40:36;;;;;;;;;;;;;;;6.43;100.00;98950.66;4956981;28;19918;-84
2023/07/14 17:43:04;;;;;;;;;;;;;;;6.34;100.00;98944.84;4918923;28;19971;-85
2023/07/14 17:45:29;;;;;;;;;;;;;;;6.41;100.00;98947.22;4954981;28;20337;-83
2023/07/14 17:47:54;;;;;;;;;;;;;;;6.39;100.00;98941.19;4971180;28;19926;-84
2023/07/14 17:50:21;;;;;;;;;;;;;;;6.39;100.00;98941.19;4954261;28;19926;-84
2023/07/14 17:52:48;;;;;;;;;;;;;;;6.38;100.00;98937.66;4953354;28;20463;-84
2023/07/14 17:55:18;;;;;;;;;;;;;;;6.35;100.00;98933.41;4952355;28;19941;-84
2023/07/14 17:57:44;;;;;;;;;;;;;;;6.44;100.00;98928.69;4953719;28;19929;-84
2023/07/14 18:00:14;;;;;;;;;;;;;;;6.32;100.00;98930.88;4951617;28;19929;-84
2023/07/14 18:02:40;;;;;;;;;;;;;;;6.39;100.00;98936.75;4953549;28;19918;-85
2023/07/14 18:05:12;;;;;;;;;;;;;;;6.44;100.00;98929.53;4953435;28;19954;-84
2023/07/14 18:07:37;;;;;;;;;;;;;;;6.36;100.00;98928.97;4954943;28;19922;-84
2023/07/14 18:10:03;;;;;;;;;;;;;;;6.32;100.00;98930.88;4954102;28;19922;-84
2023/07/14 18:12:29;;;;;;;;;;;;;;;6.39;100.00;98935.91;4954968;28;19918;-85
2023/07/14 18:14:54;;;;;;;;;;;;;;;6.43;100.00;98937.50;4970958;28;19922;-83
2023/07/14 18:17:19;;;;;;;;;;;;;;;6.45;100.00;98935.69;4953956;28;19929;-84
2023/07/14 18:19:45;;;;;;;;;;;;;;;6.20;100.00;98941.88;4950793;28;20619;-85
2023/07/14 18:22:17;;;;;;;;;;;;;;;6.30;100.00;98939.75;4953580;28;19928;-84
2023/07/14 18:24:43;;;;;;;;;;;;;;;6.29;100.00;98938.91;4952693;28;20366;-84
2023/07/14 18:27:19;;;;;;;;;;;;;;;6.25;100.00;98950.44;4954009;28;19929;-84
2023/07/14 18:29:45;;;;;;;;;;;;;;;6.32;100.00;98945.81;4952692;28;19922;-84
2023/07/14 18:32:11;;;;;;;;;;;;;;;6.32;100.00;98944.03;4954327;28;19922;-85
2023/07/14 18:34:36;;;;;;;;;;;;;;;6.32;100.00;98940.56;4955033;28;19933;-85
2023/07/14 18:37:04;;;;;;;;;;;;;;;6.26;100.00;98939.00;4954736;28;19972;-84
2023/07/14 18:39:29;;;;;;;;;;;;;;;6.26;100.00;98936.38;4953749;28;19969;-84
2023/07/14 18:41:55;;;;;;;;;;;;;;;6.29;100.00;98936.25;4953596;28;19958;-84
2023/07/14 18:44:20;;;;;;;;;;;;;;;6.32;100.00;98938.78;4957170;28;19926;-84
2023/07/14 18:46:46;;;;;;;;;;;;;;;6.36;100.00;98937.72;4954313;28;19926;-84